Time;durP1;ratioP1;P1;durP2;ratioP2;P2;SDS_P1;SDS_P2;PMS_P1;PMS_P2;Temp;Humidity;BMP_temperature;BMP_pressure;BME280_temperature;BME280_humidity;BME280_pressure;Samples;Min_cycle;Max_cycle;Signal;HPM_P1;HPM_P2
2024/01/15 00:00:59;;;;;;;23.63;3.10;;;;;;;-144.74;100.00;63161.41;5052146;28;20050;-72
2024/01/15 00:03:24;;;;;;;31.13;3.92;;;;;;;-144.74;100.00;63161.41;5052225;28;20032;-71
2024/01/15 00:05:50;;;;;;;25.10;3.85;;;;;;;-144.74;100.00;63161.41;5053136;28;20027;-72
2024/01/15 00:08:18;;;;;;;25.42;3.80;;;;;;;-144.74;100.00;63161.41;5057545;28;20036;-72
2024/01/15 00:10:43;;;;;;;24.85;4.32;;;;;;;-144.74;100.00;63161.41;5056965;28;20032;-71
2024/01/15 00:13:09;;;;;;;29.88;2.97;;;;;;;-144.74;100.00;63161.41;5057111;28;20028;-71
2024/01/15 00:15:34;;;;;;;31.17;3.75;;;;;;;-144.74;100.00;63161.41;5055807;28;20472;-72
2024/01/15 00:18:00;;;;;;;28.45;4.25;;;;;;;-144.74;100.00;63161.41;5057127;28;20040;-72
2024/01/15 00:20:25;;;;;;;24.75;3.58;;;;;;;-144.74;100.00;63161.41;5056138;28;20025;-72
2024/01/15 00:22:50;;;;;;;37.47;4.28;;;;;;;-144.74;100.00;63161.41;5056080;28;20029;-72
2024/01/15 00:25:16;;;;;;;30.63;4.90;;;;;;;-144.74;100.00;63161.41;5056184;28;20028;-72
2024/01/15 00:27:41;;;;;;;16.85;4.18;;;;;;;-144.74;100.00;63161.41;5054908;28;20033;-72
2024/01/15 00:30:07;;;;;;;33.42;4.03;;;;;;;-144.74;100.00;63161.41;5057052;28;20044;-72
2024/01/15 00:32:32;;;;;;;25.00;4.00;;;;;;;-144.74;100.00;63161.41;5055536;28;20032;-72
2024/01/15 00:34:57;;;;;;;31.65;5.57;;;;;;;-144.74;100.00;63161.41;5056459;28;20032;-72
2024/01/15 00:37:23;;;;;;;32.08;4.47;;;;;;;-144.74;100.00;63161.41;5055623;28;20156;-73
2024/01/15 00:39:48;;;;;;;32.95;4.57;;;;;;;-144.74;100.00;63161.41;5052979;28;20482;-73
2024/01/15 00:42:16;;;;;;;25.70;3.60;;;;;;;-144.74;100.00;63161.41;5055162;28;20047;-73
2024/01/15 00:44:42;;;;;;;28.15;3.97;;;;;;;-144.74;100.00;63161.41;5060498;28;20086;-74
2024/01/15 00:47:07;;;;;;;25.42;4.03;;;;;;;-144.74;100.00;63161.41;5055757;28;20044;-73
2024/01/15 00:49:33;;;;;;;26.88;4.35;;;;;;;-144.74;100.00;63161.41;5055595;28;20035;-74
2024/01/15 00:51:58;;;;;;;30.58;4.65;;;;;;;-144.74;100.00;63161.41;5071292;28;20080;-73
2024/01/15 00:54:23;;;;;;;29.45;4.00;;;;;;;-144.74;100.00;63161.41;5055518;28;20028;-75
2024/01/15 00:56:49;;;;;;;26.08;3.58;;;;;;;-144.74;100.00;63161.41;5073219;28;20033;-73
2024/01/15 00:59:14;;;;;;;24.35;3.88;;;;;;;-144.74;100.00;63161.41;5055410;28;20028;-72
2024/01/15 01:01:42;;;;;;;21.23;4.13;;;;;;;-144.74;100.00;63161.41;5054767;28;20028;-74
2024/01/15 01:04:09;;;;;;;38.65;4.85;;;;;;;-144.74;100.00;63161.41;5073702;28;20031;-74
2024/01/15 01:06:34;;;;;;;29.45;4.45;;;;;;;-144.74;100.00;63161.41;5054990;28;20044;-72
2024/01/15 01:09:00;;;;;;;30.88;4.70;;;;;;;-144.74;100.00;63161.41;5055822;28;20558;-73
2024/01/15 01:11:25;;;;;;;30.88;4.35;;;;;;;-144.74;100.00;63161.41;5054529;28;20032;-74
2024/01/15 01:13:53;;;;;;;25.42;3.67;;;;;;;-144.74;100.00;63161.41;5055679;28;20123;-77
2024/01/15 01:16:18;;;;;;;24.67;3.22;;;;;;;-144.74;100.00;63161.41;5054824;28;20120;-76
2024/01/15 01:18:44;;;;;;;46.17;6.07;;;;;;;-144.74;100.00;63161.41;5055050;28;20083;-75
2024/01/15 01:21:09;;;;;;;35.60;5.50;;;;;;;-144.74;100.00;63161.41;5072719;28;20040;-76
2024/01/15 01:23:34;;;;;;;34.25;4.43;;;;;;;-144.74;100.00;63161.41;5054899;28;20545;-76
2024/01/15 01:26:00;;;;;;;29.27;3.58;;;;;;;-144.74;100.00;63161.41;5055138;28;20040;-74
2024/01/15 01:28:25;;;;;;;31.27;3.50;;;;;;;-144.74;100.00;63161.41;5066648;28;20031;-75
2024/01/15 01:30:53;;;;;;;26.10;4.50;;;;;;;-144.74;100.00;63161.41;5045855;28;20045;-75
2024/01/15 01:33:18;;;;;;;28.80;4.57;;;;;;;-144.74;100.00;63161.41;5046595;28;20035;-75
2024/01/15 01:35:44;;;;;;;27.95;3.65;;;;;;;-144.74;100.00;63161.41;5072426;28;20136;-75
2024/01/15 01:38:10;;;;;;;43.17;6.22;;;;;;;-144.74;100.00;63161.41;5052455;28;20055;-73
2024/01/15 01:40:47;;;;;;;36.70;6.32;;;;;;;-144.74;100.00;63161.41;5053662;28;20024;-77
2024/01/15 01:43:12;;;;;;;45.83;5.15;;;;;;;-144.74;100.00;63161.41;5053853;28;20052;-78
2024/01/15 01:45:38;;;;;;;27.65;3.92;;;;;;;-144.74;100.00;63161.41;5060980;28;20060;-77
2024/01/15 01:48:07;;;;;;;36.00;4.95;;;;;;;-144.74;100.00;63161.41;5056010;28;20067;-76
2024/01/15 01:50:33;;;;;;;34.03;4.70;;;;;;;-144.74;100.00;63161.41;5048179;28;20033;-76
2024/01/15 01:52:59;;;;;;;33.33;4.25;;;;;;;-144.74;100.00;63161.41;5055244;28;20035;-76
2024/01/15 01:55:27;;;;;;;39.33;4.68;;;;;;;-144.74;100.00;63161.41;5054143;28;20163;-75
2024/01/15 01:57:56;;;;;;;32.30;4.28;;;;;;;-144.74;100.00;63161.41;5053323;28;20130;-76
2024/01/15 02:00:22;;;;;;;31.60;3.13;;;;;;;-144.74;100.00;63161.41;5054839;28;20021;-75
2024/01/15 02:02:47;;;;;;;23.27;3.47;;;;;;;-144.74;100.00;63161.41;5053886;28;20499;-75
2024/01/15 02:05:20;;;;;;;33.92;3.85;;;;;;;-144.74;100.00;63161.41;5054522;28;20031;-75
2024/01/15 02:07:46;;;;;;;21.92;4.30;;;;;;;-144.74;100.00;63161.41;5053856;28;20040;-75
2024/01/15 02:10:12;;;;;;;27.83;4.47;;;;;;;-144.74;100.00;63161.41;5054289;28;20028;-76
2024/01/15 02:12:39;;;;;;;33.47;3.90;;;;;;;-144.74;100.00;63161.41;5069983;28;20048;-76
2024/01/15 02:15:08;;;;;;;28.95;4.93;;;;;;;-144.74;100.00;63161.41;5054411;28;20032;-75
2024/01/15 02:17:33;;;;;;;30.65;3.20;;;;;;;-144.74;100.00;63161.41;5053439;28;20041;-77
2024/01/15 02:20:01;;;;;;;40.45;4.40;;;;;;;-144.74;100.00;63161.41;5054544;28;20020;-77
2024/01/15 02:22:26;;;;;;;35.50;4.63;;;;;;;-144.74;100.00;63161.41;5047696;28;20029;-78
2024/01/15 02:24:51;;;;;;;31.08;4.18;;;;;;;-144.74;100.00;63161.41;5053891;28;20051;-78
2024/01/15 02:27:19;;;;;;;24.80;5.43;;;;;;;-144.74;100.00;63161.41;5043066;28;20054;-79
2024/01/15 02:29:45;;;;;;;24.25;3.78;;;;;;;-144.74;100.00;63161.41;5052998;28;20032;-79
2024/01/15 02:32:10;;;;;;;29.52;3.80;;;;;;;-144.74;100.00;63161.41;5053387;28;20067;-78
2024/01/15 02:34:35;;;;;;;28.55;5.18;;;;;;;-144.74;100.00;63161.41;5053875;28;20115;-78
2024/01/15 02:37:01;;;;;;;30.92;5.32;;;;;;;-144.74;100.00;63161.41;5053513;28;20044;-78
2024/01/15 02:39:26;;;;;;;22.42;4.57;;;;;;;-144.74;100.00;63161.41;5050533;28;20029;-79
2024/01/15 02:41:52;;;;;;;26.27;4.38;;;;;;;-144.74;100.00;63161.41;5053394;28;20036;-78
2024/01/15 02:44:17;;;;;;;23.70;4.63;;;;;;;-144.74;100.00;63161.41;5053220;28;20029;-78
2024/01/15 02:46:42;;;;;;;22.95;4.18;;;;;;;-144.74;100.00;63161.41;5053240;28;20032;-77
2024/01/15 02:49:08;;;;;;;28.13;6.22;;;;;;;-144.74;100.00;63161.41;5054161;28;20025;-76
2024/01/15 02:51:33;;;;;;;32.08;5.22;;;;;;;-144.74;100.00;63161.41;5052863;28;20044;-77
2024/01/15 02:53:58;;;;;;;32.38;5.50;;;;;;;-144.74;100.00;63161.41;5071267;28;20043;-76
2024/01/15 02:56:24;;;;;;;34.42;4.88;;;;;;;-144.74;100.00;63161.41;5053138;28;20052;-76
2024/01/15 02:58:49;;;;;;;21.90;5.13;;;;;;;-144.74;100.00;63161.41;5053771;28;20033;-76
2024/01/15 03:01:15;;;;;;;30.70;3.97;;;;;;;-144.74;100.00;63161.41;5053251;28;20566;-76
2024/01/15 03:03:40;;;;;;;32.03;5.28;;;;;;;-144.74;100.00;63161.41;5053105;28;20035;-77
2024/01/15 03:06:11;;;;;;;46.67;5.15;;;;;;;-144.74;100.00;63161.41;5053055;28;20056;-76
2024/01/15 03:08:45;;;;;;;28.80;4.43;;;;;;;-144.74;100.00;63161.41;5054572;28;20054;-79
2024/01/15 03:11:11;;;;;;;25.38;3.47;;;;;;;-144.74;100.00;63161.41;5053500;28;20088;-79
2024/01/15 03:13:37;;;;;;;28.38;4.22;;;;;;;-144.74;100.00;63161.41;5053041;28;20021;-78
2024/01/15 03:16:04;;;;;;;37.60;4.50;;;;;;;-144.74;100.00;63161.41;5070942;28;20032;-78
2024/01/15 03:18:29;;;;;;;32.25;4.18;;;;;;;-144.74;100.00;63161.41;5053246;28;20098;-76
2024/01/15 03:20:54;;;;;;;29.35;4.45;;;;;;;-144.74;100.00;63161.41;5052367;28;20033;-77
2024/01/15 03:23:20;;;;;;;31.00;4.45;;;;;;;-144.74;100.00;63161.41;5053032;28;20033;-76
2024/01/15 03:25:45;;;;;;;25.90;4.10;;;;;;;-144.74;100.00;63161.41;5052623;28;20083;-77
2024/01/15 03:28:10;;;;;;;34.40;4.68;;;;;;;-144.74;100.00;63161.41;5053243;28;20028;-76
2024/01/15 03:30:36;;;;;;;41.78;3.58;;;;;;;-144.74;100.00;63161.41;5070194;28;20086;-76
2024/01/15 03:33:01;;;;;;;41.90;4.57;;;;;;;-144.74;100.00;63161.41;5052971;28;20074;-76
2024/01/15 03:35:29;;;;;;;34.03;5.20;;;;;;;-144.74;100.00;63161.41;5070532;28;20038;-76
2024/01/15 03:37:54;;;;;;;32.40;5.00;;;;;;;-144.74;100.00;63161.41;5070155;28;20032;-75
2024/01/15 03:40:23;;;;;;;30.33;5.25;;;;;;;-144.74;100.00;63161.41;5054238;28;20066;-74
2024/01/15 03:42:48;;;;;;;34.47;4.78;;;;;;;-144.74;100.00;63161.41;5056214;28;20059;-75
2024/01/15 03:45:13;;;;;;;32.40;4.43;;;;;;;-144.74;100.00;63161.41;5057105;28;20403;-74
2024/01/15 03:47:39;;;;;;;39.28;4.78;;;;;;;-144.74;100.00;63161.41;5074626;28;20039;-74
2024/01/15 03:50:06;;;;;;;39.35;4.43;;;;;;;-144.74;100.00;63161.41;5074708;28;20060;-75
2024/01/15 03:52:31;;;;;;;42.67;5.85;;;;;;;-144.74;100.00;63161.41;5056135;28;20021;-75
2024/01/15 03:54:56;;;;;;;45.63;5.05;;;;;;;-144.74;100.00;63161.41;5056639;28;20108;-74
2024/01/15 03:57:21;;;;;;;43.58;7.18;;;;;;;-144.74;100.00;63161.41;5056469;28;20031;-74
2024/01/15 03:59:47;;;;;;;39.22;4.10;;;;;;;-144.74;100.00;63161.41;5056866;28;20024;-74
2024/01/15 04:02:12;;;;;;;27.40;4.78;;;;;;;-144.74;100.00;63161.41;5056134;28;20115;-73
2024/01/15 04:04:41;;;;;;;34.63;4.57;;;;;;;-144.74;100.00;63161.41;5053527;28;20026;-73
2024/01/15 04:07:07;;;;;;;31.27;4.45;;;;;;;-144.74;100.00;63161.41;5045169;28;20389;-73
2024/01/15 04:09:32;;;;;;;35.00;4.40;;;;;;;-144.74;100.00;63161.41;5056448;28;20106;-74
2024/01/15 04:11:58;;;;;;;48.78;5.53;;;;;;;-144.74;100.00;63161.41;5056665;28;20072;-74
2024/01/15 04:14:23;;;;;;;41.88;5.03;;;;;;;-144.74;100.00;63161.41;5050376;28;20063;-74
2024/01/15 04:16:48;;;;;;;37.10;5.65;;;;;;;-144.74;100.00;63161.41;5056161;28;20033;-74
2024/01/15 04:19:13;;;;;;;36.97;4.70;;;;;;;-144.74;100.00;63161.41;5055139;28;20043;-71
2024/01/15 04:21:39;;;;;;;35.80;4.68;;;;;;;-144.74;100.00;63161.41;5055846;28;20056;-72
2024/01/15 04:24:04;;;;;;;30.05;4.28;;;;;;;-144.74;100.00;63161.41;5056439;28;20119;-71
2024/01/15 04:26:29;;;;;;;46.90;4.38;;;;;;;-144.74;100.00;63161.41;5055922;28;20033;-72
2024/01/15 04:28:55;;;;;;;30.58;5.55;;;;;;;-144.74;100.00;63161.41;5056178;28;20082;-72
2024/01/15 04:31:25;;;;;;;33.75;4.55;;;;;;;-144.74;100.00;63161.41;5055763;28;20052;-72
2024/01/15 04:33:50;;;;;;;35.67;4.63;;;;;;;-144.74;100.00;63161.41;5055665;28;20039;-72
2024/01/15 04:36:15;;;;;;;33.50;5.15;;;;;;;-144.74;100.00;63161.41;5056004;28;20032;-72
2024/01/15 04:38:41;;;;;;;34.38;5.00;;;;;;;-144.74;100.00;63161.41;5053665;28;20024;-72
2024/01/15 04:41:11;;;;;;;44.78;5.75;;;;;;;-144.74;100.00;63161.41;5055595;28;20037;-72
2024/01/15 04:43:36;;;;;;;44.03;7.30;;;;;;;-144.74;100.00;63161.41;5055347;28;20111;-72
2024/01/15 04:46:03;;;;;;;47.38;5.40;;;;;;;-144.74;100.00;63161.41;5074993;28;20147;-72
2024/01/15 04:48:28;;;;;;;48.85;5.10;;;;;;;-144.74;100.00;63161.41;5048400;28;20055;-72
2024/01/15 04:50:53;;;;;;;56.10;5.13;;;;;;;-144.74;100.00;63161.41;5055784;28;20487;-72
2024/01/15 04:53:19;;;;;;;25.77;4.75;;;;;;;-144.74;100.00;63161.41;5066546;28;20033;-72
2024/01/15 04:55:44;;;;;;;48.20;6.82;;;;;;;-144.74;100.00;63161.41;5055531;28;20027;-72
2024/01/15 04:58:09;;;;;;;28.90;4.60;;;;;;;-144.74;100.00;63161.41;5055564;28;20029;-72
2024/01/15 05:00:35;;;;;;;51.03;6.43;;;;;;;-144.74;100.00;63161.41;5073104;28;20031;-73
2024/01/15 05:03:00;;;;;;;46.28;5.78;;;;;;;-144.74;100.00;63161.41;5055463;28;20034;-73
2024/01/15 05:05:25;;;;;;;46.13;5.35;;;;;;;-144.74;100.00;63161.41;5055948;28;20103;-74
2024/01/15 05:07:51;;;;;;;56.40;6.05;;;;;;;-144.74;100.00;63161.41;5054928;28;20038;-74
2024/01/15 05:10:16;;;;;;;53.88;7.93;;;;;;;-144.74;100.00;63161.41;5073618;28;20031;-73
2024/01/15 05:12:41;;;;;;;52.00;6.45;;;;;;;-144.74;100.00;63161.41;5054868;28;20037;-73
2024/01/15 05:15:07;;;;;;;59.20;7.82;;;;;;;-144.74;100.00;63161.41;5055125;28;20024;-73
2024/01/15 05:17:32;;;;;;;50.38;5.57;;;;;;;-144.74;100.00;63161.41;5072294;28;20044;-73
2024/01/15 05:19:57;;;;;;;45.67;5.68;;;;;;;-144.74;100.00;63161.41;5055238;28;20547;-73
2024/01/15 05:22:24;;;;;;;62.35;5.60;;;;;;;-144.74;100.00;63161.41;5054827;28;20033;-72
2024/01/15 05:24:50;;;;;;;47.85;6.25;;;;;;;-144.74;100.00;63161.41;5055168;28;20101;-75
2024/01/15 05:27:15;;;;;;;53.80;6.18;;;;;;;-144.74;100.00;63161.41;5054799;28;20123;-73
2024/01/15 05:29:40;;;;;;;49.42;6.07;;;;;;;-144.74;100.00;63161.41;5055453;28;20024;-73
2024/01/15 05:32:06;;;;;;;53.38;5.57;;;;;;;-144.74;100.00;63161.41;5054353;28;20039;-74
2024/01/15 05:34:31;;;;;;;55.17;6.35;;;;;;;-144.74;100.00;63161.41;5054969;28;20031;-74
2024/01/15 05:36:56;;;;;;;46.42;5.03;;;;;;;-144.74;100.00;63161.41;5044777;28;20043;-75
2024/01/15 05:39:21;;;;;;;48.83;5.82;;;;;;;-144.74;100.00;63161.41;5055142;28;20046;-74
2024/01/15 05:41:47;;;;;;;34.97;4.70;;;;;;;-144.74;100.00;63161.41;5072190;28;20124;-74
2024/01/15 05:44:12;;;;;;;59.22;5.80;;;;;;;-144.74;100.00;63161.41;5054530;28;20549;-76
2024/01/15 05:46:37;;;;;;;50.83;5.95;;;;;;;-144.74;100.00;63161.41;5054437;28;20027;-74
2024/01/15 05:49:03;;;;;;;47.63;4.85;;;;;;;-144.74;100.00;63161.41;5055657;28;20020;-75
2024/01/15 05:51:28;;;;;;;50.42;5.85;;;;;;;-144.74;100.00;63161.41;5054127;28;20111;-75
2024/01/15 05:53:53;;;;;;;38.70;5.25;;;;;;;-144.74;100.00;63161.41;5054627;28;20020;-75
2024/01/15 05:56:19;;;;;;;34.65;4.85;;;;;;;-144.74;100.00;63161.41;5054369;28;20033;-75
2024/01/15 05:58:44;;;;;;;44.05;4.47;;;;;;;-144.74;100.00;63161.41;5053894;28;20047;-76
2024/01/15 06:01:10;;;;;;;45.55;4.43;;;;;;;-144.74;100.00;63161.41;5054482;28;20059;-75
2024/01/15 06:03:35;;;;;;;48.33;6.25;;;;;;;-144.74;100.00;63161.41;5054088;28;20020;-74
2024/01/15 06:06:00;;;;;;;48.97;5.22;;;;;;;-144.74;100.00;63161.41;5054329;28;20083;-74
2024/01/15 06:08:27;;;;;;;50.90;5.55;;;;;;;-144.74;100.00;63161.41;5053358;28;20059;-74
2024/01/15 06:10:53;;;;;;;58.67;5.47;;;;;;;-144.74;100.00;63161.41;5054042;28;20037;-74
2024/01/15 06:13:18;;;;;;;52.58;6.55;;;;;;;-144.74;100.00;63161.41;5054070;28;20050;-74
2024/01/15 06:15:43;;;;;;;41.22;4.78;;;;;;;-144.74;100.00;63161.41;5071503;28;20375;-74
2024/01/15 06:18:09;;;;;;;52.63;5.35;;;;;;;-144.74;100.00;63161.41;5054533;28;20036;-74
2024/01/15 06:20:35;;;;;;;56.10;5.88;;;;;;;-144.74;100.00;63161.41;5053745;28;20027;-74
2024/01/15 06:23:00;;;;;;;47.70;6.80;;;;;;;-144.74;100.00;63161.41;5053888;28;20056;-74
2024/01/15 06:25:25;;;;;;;44.28;5.63;;;;;;;-144.74;100.00;63161.41;5054112;28;20023;-75
2024/01/15 06:27:51;;;;;;;42.75;6.47;;;;;;;-144.74;100.00;63161.41;5053371;28;20021;-75
2024/01/15 06:30:16;;;;;;;42.47;5.53;;;;;;;-144.74;100.00;63161.41;5053884;28;20028;-75
2024/01/15 06:32:41;;;;;;;47.03;5.95;;;;;;;-144.74;100.00;63161.41;5053262;28;20029;-75
2024/01/15 06:35:07;;;;;;;40.85;5.78;;;;;;;-144.74;100.00;63161.41;5053933;28;20035;-73
2024/01/15 06:37:32;;;;;;;47.33;5.18;;;;;;;-144.74;100.00;63161.41;5071241;28;20043;-75
2024/01/15 06:39:58;;;;;;;47.65;6.03;;;;;;;-144.74;100.00;63161.41;5053037;28;20048;-74
2024/01/15 06:42:23;;;;;;;49.08;7.72;;;;;;;-144.74;100.00;63161.41;5071165;28;20032;-74
2024/01/15 06:44:48;;;;;;;45.33;5.70;;;;;;;-144.74;100.00;63161.41;5056295;28;20020;-74
2024/01/15 06:47:14;;;;;;;50.33;5.68;;;;;;;-144.74;100.00;63161.41;5053069;28;20033;-75
2024/01/15 06:49:40;;;;;;;48.05;5.53;;;;;;;-144.74;100.00;63161.41;5071912;28;20543;-75
2024/01/15 06:52:06;;;;;;;42.63;4.80;;;;;;;-144.74;100.00;63161.41;5053314;28;20065;-73
2024/01/15 06:54:33;;;;;;;59.28;6.45;;;;;;;-144.74;100.00;63161.41;5049631;28;20021;-73
2024/01/15 06:56:59;;;;;;;40.72;6.25;;;;;;;-144.74;100.00;63161.41;5049775;28;20547;-74
2024/01/15 06:59:24;;;;;;;43.67;5.70;;;;;;;-144.74;100.00;63161.41;5068076;28;20155;-74
2024/01/15 07:01:49;;;;;;;54.13;7.80;;;;;;;-144.74;100.00;63161.41;5049750;28;20191;-74
2024/01/15 07:04:15;;;;;;;42.08;4.90;;;;;;;-144.74;100.00;63161.41;5050421;28;20024;-74
2024/01/15 07:06:40;;;;;;;53.40;5.88;;;;;;;-144.74;100.00;63161.41;5052758;28;20040;-74
2024/01/15 07:09:06;;;;;;;41.35;5.38;;;;;;;-144.74;100.00;63161.41;5053373;28;20031;-76
2024/01/15 07:11:31;;;;;;;47.15;6.68;;;;;;;-144.74;100.00;63161.41;5052317;28;20116;-76
2024/01/15 07:13:56;;;;;;;23.88;4.10;;;;;;;-144.74;100.00;63161.41;5053194;28;20024;-74
2024/01/15 07:16:22;;;;;;;47.28;4.70;;;;;;;-144.74;100.00;63161.41;5052060;28;20035;-75
2024/01/15 07:18:47;;;;;;;38.03;4.88;;;;;;;-144.74;100.00;63161.41;5053772;28;20028;-75
2024/01/15 07:21:12;;;;;;;54.72;5.90;;;;;;;-144.74;100.00;63161.41;5052963;28;20067;-75
2024/01/15 07:23:38;;;;;;;57.13;6.30;;;;;;;-144.74;100.00;63161.41;5070631;28;20013;-75
2024/01/15 07:26:05;;;;;;;37.00;5.68;;;;;;;-144.74;100.00;63161.41;5053272;28;20037;-75
2024/01/15 07:28:30;;;;;;;37.25;5.15;;;;;;;-144.74;100.00;63161.41;5052014;28;20020;-74
2024/01/15 07:30:56;;;;;;;41.83;4.82;;;;;;;-144.74;100.00;63161.41;5052374;28;20091;-75
2024/01/15 07:33:21;;;;;;;43.08;5.07;;;;;;;-144.74;100.00;63161.41;5053040;28;20020;-75
2024/01/15 07:35:47;;;;;;;31.75;4.80;;;;;;;-144.74;100.00;63161.41;5048394;28;20031;-75
2024/01/15 07:38:12;;;;;;;25.10;4.30;;;;;;;-144.74;100.00;63161.41;5050525;28;20116;-74
2024/01/15 07:40:37;;;;;;;45.10;4.70;;;;;;;-144.74;100.00;63161.41;5062975;28;20028;-74
2024/01/15 07:43:03;;;;;;;34.92;3.53;;;;;;;-144.74;100.00;63161.41;5038566;28;20554;-74
2024/01/15 07:45:29;;;;;;;30.20;4.18;;;;;;;-144.74;100.00;63161.41;5056675;28;20079;-74
2024/01/15 07:47:55;;;;;;;21.83;3.95;;;;;;;-144.74;100.00;63161.41;5052552;28;20028;-73
2024/01/15 07:50:20;;;;;;;31.35;4.43;;;;;;;-144.74;100.00;63161.41;5070408;28;20028;-75
2024/01/15 07:52:45;;;;;;;29.80;3.35;;;;;;;-144.74;100.00;63161.41;5052416;28;20079;-73
2024/01/15 07:55:11;;;;;;;19.25;2.70;;;;;;;-144.74;100.00;63161.41;5052406;28;20024;-71
2024/01/15 07:57:36;;;;;;;19.42;2.97;;;;;;;-144.74;100.00;63161.41;5050912;28;20032;-70
2024/01/15 08:00:04;;;;;;;22.77;3.97;;;;;;;-144.74;100.00;63161.41;5070391;28;20023;-70
2024/01/15 08:02:30;;;;;;;39.17;4.90;;;;;;;-144.74;100.00;63161.41;5068756;28;20040;-71
2024/01/15 08:04:55;;;;;;;28.20;3.92;;;;;;;-144.74;100.00;63161.41;5052770;28;20029;-71
2024/01/15 08:07:20;;;;;;;21.42;2.80;;;;;;;-144.74;100.00;63161.41;5051884;28;20098;-72
2024/01/15 08:09:47;;;;;;;41.63;4.70;;;;;;;-144.74;100.00;63161.41;5052755;28;20036;-71
2024/01/15 08:12:13;;;;;;;34.58;3.05;;;;;;;-144.74;100.00;63161.41;5052027;28;20032;-70
2024/01/15 08:14:38;;;;;;;32.72;3.20;;;;;;;-144.74;100.00;63161.41;5052364;28;20027;-70
2024/01/15 08:17:04;;;;;;;26.58;3.08;;;;;;;-144.74;100.00;63161.41;5052449;28;20057;-70
2024/01/15 08:19:29;;;;;;;24.02;3.00;;;;;;;-144.74;100.00;63161.41;5052326;28;20090;-71
2024/01/15 08:21:54;;;;;;;25.10;4.38;;;;;;;-144.74;100.00;63161.41;5052158;28;20028;-72
2024/01/15 08:24:20;;;;;;;27.25;3.78;;;;;;;-144.74;100.00;63161.41;5064961;28;20104;-70
2024/01/15 08:26:45;;;;;;;34.05;4.90;;;;;;;-144.74;100.00;63161.41;5045501;28;20036;-70
2024/01/15 08:29:11;;;;;;;21.80;3.50;;;;;;;-144.74;100.00;63161.41;5055983;28;20020;-70
2024/01/15 08:31:36;;;;;;;18.85;2.58;;;;;;;-144.74;100.00;63161.41;5049871;28;21331;-70
2024/01/15 08:34:01;;;;;;;42.50;4.40;;;;;;;-144.74;100.00;63161.41;5055025;28;20091;-70
2024/01/15 08:36:29;;;;;;;32.20;3.78;;;;;;;-144.74;100.00;63161.41;5073421;28;20039;-70
2024/01/15 08:38:55;;;;;;;19.13;3.58;;;;;;;-144.74;100.00;63161.41;5051070;28;20020;-70
2024/01/15 08:41:20;;;;;;;32.95;3.50;;;;;;;-144.74;100.00;63161.41;5055243;28;20040;-71
2024/01/15 08:43:46;;;;;;;27.60;3.47;;;;;;;-144.74;100.00;63161.41;5057867;28;20016;-71
2024/01/15 08:46:11;;;;;;;30.67;4.78;;;;;;;-144.74;100.00;63161.41;5076759;28;20063;-70
2024/01/15 08:48:36;;;;;;;29.35;4.00;;;;;;;-144.74;100.00;63161.41;5056032;28;20017;-71
2024/01/15 08:51:02;;;;;;;25.73;3.70;;;;;;;-144.74;100.00;63161.41;5055467;28;20032;-71
2024/01/15 08:53:28;;;;;;;29.95;4.88;;;;;;;-144.74;100.00;63161.41;5055719;28;20035;-70
2024/01/15 08:55:53;;;;;;;17.20;3.80;;;;;;;-144.74;100.00;63161.41;5056215;28;20024;-71
2024/01/15 08:58:18;;;;;;;33.15;3.95;;;;;;;-144.74;100.00;63161.41;5055516;28;20024;-71
2024/01/15 09:00:44;;;;;;;18.38;2.83;;;;;;;-144.74;100.00;63161.41;5055497;28;20017;-70
2024/01/15 09:03:09;;;;;;;23.23;3.08;;;;;;;-144.74;100.00;63161.41;5055881;28;20033;-70
2024/01/15 09:05:35;;;;;;;23.40;3.67;;;;;;;-144.74;100.00;63161.41;5055065;28;20099;-70
2024/01/15 09:08:00;;;;;;;31.80;3.63;;;;;;;-144.74;100.00;63161.41;5074222;28;20021;-70
2024/01/15 09:10:26;;;;;;;23.40;4.70;;;;;;;-144.74;100.00;63161.41;5055601;28;20452;-70
2024/01/15 09:12:51;;;;;;;28.30;4.05;;;;;;;-144.74;100.00;63161.41;5054932;28;20036;-70
2024/01/15 09:15:17;;;;;;;24.65;3.60;;;;;;;-144.74;100.00;63161.41;5055239;28;20523;-70
2024/01/15 09:17:43;;;;;;;27.10;3.72;;;;;;;-144.74;100.00;63161.41;5055013;28;20120;-72
2024/01/15 09:20:09;;;;;;;31.30;3.90;;;;;;;-144.74;100.00;63161.41;5055777;28;20036;-72
2024/01/15 09:22:35;;;;;;;23.13;3.92;;;;;;;-144.74;100.00;63161.41;5054422;28;20032;-71
2024/01/15 09:25:00;;;;;;;30.13;3.20;;;;;;;-144.74;100.00;63161.41;5055176;28;20020;-70
2024/01/15 09:27:26;;;;;;;29.05;3.30;;;;;;;-144.74;100.00;63161.41;5053759;28;20086;-71
2024/01/15 09:29:52;;;;;;;23.83;4.45;;;;;;;-144.74;100.00;63161.41;5073374;28;20379;-71
2024/01/15 09:32:18;;;;;;;21.30;3.83;;;;;;;-144.74;100.00;63161.41;5052853;28;20036;-71
2024/01/15 09:34:44;;;;;;;31.27;3.58;;;;;;;-144.74;100.00;63161.41;5072935;28;20020;-70
2024/01/15 09:37:09;;;;;;;26.42;3.75;;;;;;;-144.74;100.00;63161.41;5076367;28;20036;-71
2024/01/15 09:39:34;;;;;;;24.45;4.45;;;;;;;-144.74;100.00;63161.41;5053990;28;20066;-70
2024/01/15 09:42:01;;;;;;;37.20;4.82;;;;;;;-144.74;100.00;63161.41;5054559;28;20041;-71
2024/01/15 09:44:27;;;;;;;36.50;4.97;;;;;;;-144.74;100.00;63161.41;5077759;28;20042;-73
2024/01/15 09:46:53;;;;;;;33.05;5.13;;;;;;;-144.74;100.00;63161.41;5054201;28;20032;-72
2024/01/15 09:49:19;;;;;;;29.08;4.47;;;;;;;-144.74;100.00;63161.41;5073024;28;20039;-73
2024/01/15 09:51:45;;;;;;;36.17;4.10;;;;;;;-144.74;100.00;63161.41;5053256;28;20040;-73
2024/01/15 09:54:13;;;;;;;25.80;3.55;;;;;;;-144.74;100.00;63161.41;5072583;28;20032;-73
2024/01/15 09:56:39;;;;;;;24.30;3.10;;;;;;;-144.74;100.00;63161.41;5048394;28;20034;-72
2024/01/15 09:59:05;;;;;;;22.23;2.83;;;;;;;-144.74;100.00;63161.41;5047453;28;20029;-71
2024/01/15 10:01:31;;;;;;;24.70;3.88;;;;;;;-144.74;100.00;63161.41;5059315;28;20040;-72
2024/01/15 10:03:57;;;;;;;16.08;2.55;;;;;;;-144.74;100.00;63161.41;5054587;28;20071;-73
2024/01/15 10:06:22;;;;;;;32.20;3.13;;;;;;;-144.74;100.00;63161.41;5053764;28;20499;-71
2024/01/15 10:08:49;;;;;;;36.05;3.80;;;;;;;-144.74;100.00;63161.41;5054530;28;20107;-73
2024/01/15 10:11:16;;;;;;;37.38;4.10;;;;;;;-144.74;100.00;63161.41;5053592;28;20059;-72
2024/01/15 10:13:43;;;;;;;46.55;5.82;;;;;;;-144.74;100.00;63161.41;5053759;28;20463;-71
2024/01/15 10:16:09;;;;;;;24.17;3.38;;;;;;;-144.74;100.00;63161.41;5054129;28;20036;-71
2024/01/15 10:18:35;;;;;;;33.88;5.25;;;;;;;-144.74;100.00;63161.41;5071708;28;20151;-71
2024/01/15 10:21:03;;;;;;;35.63;3.58;;;;;;;-144.74;100.00;63161.41;5053343;28;20116;-70
2024/01/15 10:23:28;;;;;;;32.10;4.88;;;;;;;-144.74;100.00;63161.41;5053463;28;20059;-73
2024/01/15 10:25:53;;;;;;;29.08;2.80;;;;;;;-144.74;100.00;63161.41;5071163;28;20055;-71
2024/01/15 10:28:19;;;;;;;22.67;3.45;;;;;;;-144.74;100.00;63161.41;5071916;28;20033;-73
2024/01/15 10:30:45;;;;;;;29.83;3.78;;;;;;;-144.74;100.00;63161.41;5053998;28;20027;-72
2024/01/15 10:33:11;;;;;;;24.20;3.33;;;;;;;-144.74;100.00;63161.41;5053910;28;20360;-72
2024/01/15 10:35:37;;;;;;;24.75;3.58;;;;;;;-144.74;100.00;63161.41;5054939;28;20115;-72
2024/01/15 10:38:03;;;;;;;27.10;3.10;;;;;;;-144.74;100.00;63161.41;5052003;28;20538;-71
2024/01/15 10:40:29;;;;;;;26.42;3.85;;;;;;;-144.74;100.00;63161.41;5052065;28;20062;-72
2024/01/15 10:42:54;;;;;;;27.05;4.47;;;;;;;-144.74;100.00;63161.41;5053352;28;20032;-71
2024/01/15 10:45:20;;;;;;;19.52;2.20;;;;;;;-144.74;100.00;63161.41;5071474;28;20119;-72
2024/01/15 10:47:45;;;;;;;24.60;2.33;;;;;;;-144.74;100.00;63161.41;5052104;28;20043;-71
2024/01/15 10:50:11;;;;;;;12.75;2.33;;;;;;;-144.74;100.00;63161.41;5070473;28;20040;-70
2024/01/15 10:52:40;;;;;;;19.08;2.70;;;;;;;-144.74;100.00;63161.41;5070296;28;20035;-71
2024/01/15 10:55:07;;;;;;;19.10;3.60;;;;;;;-144.74;100.00;63161.41;5053973;28;20158;-71